createdAt,value
2018-12-01T00:00:36.782Z,52.40
2018-12-01T00:03:06.867Z,50.73
2018-12-01T00:05:36.981Z,53.37
2018-12-01T00:08:07.157Z,53.60
2018-12-01T00:10:37.116Z,52.57
2018-12-01T00:13:07.255Z,50.10
2018-12-01T00:15:37.347Z,50.73
2018-12-01T00:18:07.651Z,52.97
2018-12-01T00:20:38.741Z,51.53
2018-12-01T00:23:09.028Z,52.00
2018-12-01T00:25:39.398Z,50.23
2018-12-01T00:28:09.385Z,53.23
2018-12-01T00:30:39.364Z,54.57
2018-12-01T00:33:09.555Z,59.17
2018-12-01T00:35:39.644Z,53.40
2018-12-01T00:38:09.623Z,50.00
2018-12-01T00:40:39.809Z,48.80
2018-12-01T00:43:09.861Z,50.47
2018-12-01T00:45:40.084Z,52.77
2018-12-01T00:48:10.515Z,51.80
2018-12-01T00:50:40.504Z,51.20
2018-12-01T00:53:11.016Z,51.43
2018-12-01T00:55:41.485Z,50.83
2018-12-01T00:58:11.735Z,53.50
2018-12-01T01:00:41.725Z,48.47
2018-12-01T01:03:12.252Z,54.07
2018-12-01T01:05:42.429Z,52.03
2018-12-01T01:08:12.940Z,49.97
2018-12-01T01:10:43.221Z,52.17
2018-12-01T01:13:13.726Z,51.10
2018-12-01T01:15:44.619Z,53.43
2018-12-01T01:18:14.787Z,50.30
2018-12-01T01:20:45.038Z,50.23
2018-12-01T01:23:15.021Z,50.37
2018-12-01T01:25:45.141Z,50.13
2018-12-01T01:28:15.398Z,50.33
2018-12-01T01:30:45.794Z,52.17
2018-12-01T01:33:29.710Z,52.43
2018-12-01T01:36:00.505Z,50.07
2018-12-01T01:38:31.340Z,48.27
2018-12-01T01:41:07.428Z,49.43
2018-12-01T01:43:38.065Z,51.73
2018-12-01T01:46:08.030Z,49.23
2018-12-01T01:48:37.900Z,52.97
2018-12-01T01:51:08.374Z,49.93
2018-12-01T01:53:38.366Z,51.90
2018-12-01T01:56:13.781Z,51.70
2018-12-01T01:58:44.093Z,50.53
2018-12-01T02:01:13.991Z,51.20
2018-12-01T02:03:44.189Z,50.37
2018-12-01T02:06:15.434Z,50.97
2018-12-01T02:08:45.694Z,51.17
2018-12-01T02:11:15.848Z,51.77
2018-12-01T02:13:46.045Z,48.40
2018-12-01T02:16:16.397Z,53.37
2018-12-01T02:18:46.606Z,49.80
2018-12-01T02:21:17.659Z,52.10
2018-12-01T02:23:47.840Z,52.83
2018-12-01T02:26:18.399Z,50.13
2018-12-01T02:28:49.020Z,52.53
2018-12-01T02:31:19.259Z,53.73
2018-12-01T02:33:50.553Z,51.33
2018-12-01T02:36:20.486Z,53.30
2018-12-01T02:38:50.515Z,49.40
2018-12-01T02:41:20.734Z,51.23
2018-12-01T02:44:06.204Z,52.33
2018-12-01T02:46:52.985Z,48.70
2018-12-01T02:49:23.243Z,49.87
2018-12-01T02:51:53.104Z,48.07
2018-12-01T02:54:22.989Z,48.77
2018-12-01T02:56:53.084Z,50.63
2018-12-01T02:59:23.282Z,48.83
2018-12-01T03:01:54.246Z,49.23
2018-12-01T03:04:24.166Z,47.77
2018-12-01T03:06:54.489Z,48.13
2018-12-01T03:09:26.806Z,50.27
2018-12-01T03:11:56.924Z,52.83
2018-12-01T03:14:26.919Z,51.43
2018-12-01T03:16:57.046Z,51.10
2018-12-01T03:19:27.953Z,54.17
2018-12-01T03:21:57.938Z,49.23
2018-12-01T03:24:28.329Z,51.93
2018-12-01T03:26:58.390Z,49.13
2018-12-01T03:29:29.725Z,50.17
2018-12-01T03:32:00.022Z,50.87
2018-12-01T03:34:30.907Z,49.73
2018-12-01T03:37:00.780Z,50.50
2018-12-01T03:39:30.862Z,50.47
2018-12-01T03:42:01.100Z,52.97
2018-12-01T03:44:31.274Z,51.03
2018-12-01T03:47:01.188Z,51.23
2018-12-01T03:49:31.300Z,51.43
2018-12-01T03:52:01.684Z,54.50
2018-12-01T03:54:31.888Z,50.37
2018-12-01T03:57:01.937Z,48.73
2018-12-01T03:59:32.086Z,51.00
2018-12-01T04:02:02.220Z,51.63
2018-12-01T04:04:32.443Z,53.93
2018-12-01T04:07:02.917Z,51.80
2018-12-01T04:09:33.098Z,51.63
2018-12-01T04:12:03.012Z,51.67
2018-12-01T04:14:33.233Z,50.63
2018-12-01T04:17:03.553Z,49.70
2018-12-01T04:19:33.558Z,50.10
2018-12-01T04:22:03.768Z,55.40
2018-12-01T04:24:33.812Z,52.60
2018-12-01T04:27:03.728Z,53.20
2018-12-01T04:29:33.780Z,51.07
2018-12-01T04:32:03.858Z,52.20
2018-12-01T04:34:34.729Z,50.87
2018-12-01T04:37:05.061Z,53.10
2018-12-01T04:39:35.446Z,51.73
2018-12-01T04:42:06.092Z,52.10
2018-12-01T04:44:36.204Z,51.23
2018-12-01T04:47:06.655Z,52.63
2018-12-01T04:49:37.004Z,50.97
2018-12-01T04:52:07.598Z,52.90
2018-12-01T04:54:37.745Z,50.10
2018-12-01T04:57:07.770Z,51.87
2018-12-01T04:59:38.102Z,52.60
2018-12-01T05:02:08.385Z,50.00
2018-12-01T05:04:38.398Z,52.40
2018-12-01T05:07:08.728Z,55.27
2018-12-01T05:09:38.883Z,54.43
2018-12-01T05:12:09.623Z,49.07
2018-12-01T05:14:39.577Z,55.63
2018-12-01T05:17:09.724Z,51.70
2018-12-01T05:19:39.682Z,51.50
2018-12-01T05:22:09.817Z,49.60
2018-12-01T05:24:39.920Z,51.97
2018-12-01T05:27:10.268Z,51.60
2018-12-01T05:29:40.487Z,51.63
2018-12-01T05:32:17.318Z,51.80
2018-12-01T05:34:47.583Z,51.47
2018-12-01T05:37:18.112Z,52.80
2018-12-01T05:39:48.142Z,49.10
2018-12-01T05:42:18.678Z,52.83
2018-12-01T05:44:48.635Z,50.37
2018-12-01T05:47:18.679Z,53.40
2018-12-01T05:49:48.859Z,55.67
2018-12-01T05:52:19.066Z,52.37
2018-12-01T05:54:50.306Z,52.70
2018-12-01T05:57:21.326Z,54.73
2018-12-01T05:59:52.476Z,53.50
2018-12-01T06:02:22.588Z,51.63
2018-12-01T06:04:53.222Z,53.17
2018-12-01T06:07:23.356Z,52.70
2018-12-01T06:09:53.349Z,50.70
2018-12-01T06:12:23.321Z,55.53
2018-12-01T06:14:53.605Z,51.70
2018-12-01T06:17:23.619Z,56.90
2018-12-01T06:19:53.736Z,50.60
2018-12-01T06:22:23.875Z,52.93
2018-12-01T06:24:54.137Z,58.73
2018-12-01T06:27:25.142Z,54.07
2018-12-01T06:29:55.095Z,53.60
2018-12-01T06:32:25.075Z,53.73
2018-12-01T06:34:55.542Z,56.43
2018-12-01T06:37:25.417Z,53.87
2018-12-01T06:39:55.431Z,51.33
2018-12-01T06:42:26.921Z,52.43
2018-12-01T06:44:57.801Z,50.40
2018-12-01T06:47:28.617Z,52.13
2018-12-01T06:49:58.712Z,51.67
2018-12-01T06:52:29.525Z,53.80
2018-12-01T06:54:59.786Z,51.80
2018-12-01T06:57:29.817Z,52.83
2018-12-01T06:59:59.843Z,52.83
2018-12-01T07:02:29.769Z,51.60
2018-12-01T07:05:00.094Z,49.00
2018-12-01T07:07:30.383Z,53.03
2018-12-01T07:10:00.592Z,56.67
2018-12-01T07:12:31.864Z,50.57
2018-12-01T07:15:02.568Z,51.57
2018-12-01T07:17:32.774Z,50.43
2018-12-01T07:20:03.045Z,54.13
2018-12-01T07:22:33.272Z,52.97
2018-12-01T07:25:03.645Z,51.97
2018-12-01T07:27:33.550Z,52.27
2018-12-01T07:30:03.737Z,51.80
2018-12-01T07:32:33.808Z,57.13
2018-12-01T07:35:04.388Z,52.70
2018-12-01T07:37:34.580Z,55.20
2018-12-01T07:40:07.153Z,55.30
2018-12-01T07:42:37.860Z,54.47
2018-12-01T07:45:12.054Z,55.10
2018-12-01T07:47:42.197Z,52.43
2018-12-01T07:50:15.667Z,55.17
2018-12-01T07:52:49.175Z,55.37
2018-12-01T07:55:19.576Z,53.63
2018-12-01T07:57:50.468Z,50.17
2018-12-01T08:00:20.884Z,53.97
2018-12-01T08:02:52.633Z,58.10
2018-12-01T08:05:23.752Z,52.13
2018-12-01T08:07:53.806Z,52.40
2018-12-01T08:10:24.053Z,55.13
2018-12-01T08:12:55.127Z,50.43
2018-12-01T08:15:25.127Z,52.93
2018-12-01T08:17:55.262Z,50.83
2018-12-01T08:20:25.238Z,50.97
2018-12-01T08:22:55.343Z,51.80
2018-12-01T08:25:25.730Z,52.97
2018-12-01T08:27:57.806Z,48.83
2018-12-01T08:30:31.133Z,52.17
2018-12-01T08:33:01.324Z,49.80
2018-12-01T08:35:31.887Z,52.37
2018-12-01T08:38:02.394Z,50.77
2018-12-01T08:40:33.435Z,52.83
2018-12-01T08:43:03.892Z,56.97
2018-12-01T08:45:33.945Z,53.83
2018-12-01T08:48:04.206Z,52.40
2018-12-01T08:50:34.577Z,50.17
2018-12-01T08:53:04.594Z,53.47
2018-12-01T08:55:36.061Z,53.97
2018-12-01T08:58:06.435Z,51.97
2018-12-01T09:00:43.606Z,52.07
2018-12-01T09:03:18.668Z,51.83
2018-12-01T09:05:49.268Z,53.03
2018-12-01T09:08:19.494Z,52.40
2018-12-01T09:10:49.608Z,53.53
2018-12-01T09:13:19.551Z,52.07
2018-12-01T09:15:49.874Z,52.23
2018-12-01T09:18:20.328Z,53.77
2018-12-01T09:20:50.607Z,51.43
2018-12-01T09:23:20.655Z,52.50
2018-12-01T09:25:51.029Z,53.27
2018-12-01T09:28:21.440Z,53.87
2018-12-01T09:30:52.118Z,52.73
2018-12-01T09:33:22.338Z,53.07
2018-12-01T09:35:53.763Z,56.10
2018-12-01T09:38:24.198Z,53.37
2018-12-01T09:40:55.380Z,50.63
2018-12-01T09:43:25.981Z,51.80
2018-12-01T09:45:56.809Z,50.77
2018-12-01T09:48:26.861Z,54.80
2018-12-01T09:50:56.933Z,55.43
2018-12-01T09:53:27.504Z,55.03
2018-12-01T09:55:59.770Z,54.27
2018-12-01T09:58:29.908Z,54.57
2018-12-01T10:00:59.986Z,55.20
2018-12-01T10:03:31.016Z,52.30
2018-12-01T10:06:01.038Z,53.63
2018-12-01T10:08:31.301Z,51.70
2018-12-01T10:11:01.653Z,54.20
2018-12-01T10:13:31.697Z,55.93
2018-12-01T10:16:08.202Z,51.70
2018-12-01T10:18:38.879Z,56.23
2018-12-01T10:21:09.275Z,53.50
2018-12-01T10:23:39.225Z,53.60
2018-12-01T10:26:09.255Z,51.70
2018-12-01T10:28:39.468Z,52.30
2018-12-01T10:31:09.762Z,52.53
2018-12-01T10:33:39.916Z,52.73
2018-12-01T10:36:10.277Z,52.60
2018-12-01T10:38:40.377Z,51.17
2018-12-01T10:41:11.423Z,50.33
2018-12-01T10:43:41.346Z,53.30
2018-12-01T10:46:11.808Z,52.20
2018-12-01T10:48:42.197Z,51.57
2018-12-01T10:51:12.389Z,54.03
2018-12-01T10:53:42.638Z,53.03
2018-12-01T10:56:13.506Z,51.23
2018-12-01T10:58:44.689Z,52.63
2018-12-01T11:01:19.923Z,55.47
2018-12-01T11:03:51.433Z,52.80
2018-12-01T11:06:21.970Z,53.57
2018-12-01T11:08:53.187Z,52.63
2018-12-01T11:11:23.533Z,54.50
2018-12-01T11:13:53.801Z,52.93
2018-12-01T11:16:23.890Z,53.03
2018-12-01T11:18:54.022Z,51.57
2018-12-01T11:21:24.312Z,51.20
2018-12-01T11:23:54.549Z,53.20
2018-12-01T11:26:24.573Z,53.40
2018-12-01T11:28:54.695Z,53.10
2018-12-01T11:31:24.880Z,54.07
2018-12-01T11:33:54.973Z,53.80
2018-12-01T11:36:25.425Z,51.43
2018-12-01T11:38:55.414Z,52.17
2018-12-01T11:41:25.434Z,54.53
2018-12-01T11:43:55.690Z,52.87
2018-12-01T11:46:26.420Z,54.33
2018-12-01T11:48:56.445Z,51.50
2018-12-01T11:51:27.290Z,57.50
2018-12-01T11:53:58.167Z,56.97
2018-12-01T11:56:28.667Z,55.37
2018-12-01T11:58:58.932Z,53.83
2018-12-01T12:01:28.776Z,55.70
2018-12-01T12:04:00.714Z,55.27
2018-12-01T12:06:31.501Z,56.40
2018-12-01T12:09:10.630Z,51.83
2018-12-01T12:11:40.700Z,55.77
2018-12-01T12:14:11.043Z,55.20
2018-12-01T12:16:41.221Z,54.93
2018-12-01T12:19:11.165Z,56.00
2018-12-01T12:21:41.493Z,56.27
2018-12-01T12:24:14.510Z,55.20
2018-12-01T12:26:44.968Z,55.07
2018-12-01T12:29:21.547Z,52.43
2018-12-01T12:31:51.715Z,53.40
2018-12-01T12:34:22.094Z,53.77
2018-12-01T12:36:52.572Z,53.60
2018-12-01T12:39:22.533Z,52.70
2018-12-01T12:41:52.434Z,53.07
2018-12-01T12:44:22.474Z,52.73
2018-12-01T12:46:52.424Z,54.57
2018-12-01T12:49:22.631Z,56.03
2018-12-01T12:51:53.240Z,53.77
2018-12-01T12:54:23.661Z,54.40
2018-12-01T12:56:53.913Z,52.90
2018-12-01T12:59:24.170Z,53.13
2018-12-01T13:01:54.288Z,52.90
2018-12-01T13:04:24.798Z,55.70
2018-12-01T13:06:54.637Z,54.97
2018-12-01T13:09:24.692Z,54.27
2018-12-01T13:11:54.945Z,52.93
2018-12-01T13:14:25.515Z,54.40
2018-12-01T13:16:55.800Z,55.33
2018-12-01T13:19:25.828Z,54.93
2018-12-01T13:21:56.530Z,53.03
2018-12-01T13:24:27.006Z,54.17
2018-12-01T13:26:58.202Z,54.50
2018-12-01T13:29:28.394Z,54.03
2018-12-01T13:31:58.608Z,56.17
2018-12-01T13:34:29.289Z,54.50
2018-12-01T13:36:59.540Z,54.00
2018-12-01T13:39:29.490Z,54.90
2018-12-01T13:41:59.580Z,55.47
2018-12-01T13:44:29.728Z,54.40
2018-12-01T13:47:00.840Z,54.63
2018-12-01T13:49:31.242Z,55.47
2018-12-01T13:52:01.576Z,55.70
2018-12-01T13:54:31.771Z,52.93
2018-12-01T13:57:01.860Z,54.37
2018-12-01T13:59:32.168Z,55.87
2018-12-01T14:02:02.369Z,54.20
2018-12-01T14:04:32.702Z,55.57
2018-12-01T14:07:03.317Z,55.67
2018-12-01T14:09:34.711Z,56.17
2018-12-01T14:12:05.265Z,55.43
2018-12-01T14:14:35.465Z,56.37
2018-12-01T14:17:06.278Z,58.20
2018-12-01T14:19:38.793Z,54.90
2018-12-01T14:22:10.772Z,57.73
2018-12-01T14:24:43.133Z,56.93
2018-12-01T14:27:15.312Z,56.70
2018-12-01T14:29:47.376Z,54.83
2018-12-01T14:32:19.090Z,55.77
2018-12-01T14:34:52.174Z,55.37
2018-12-01T14:37:24.546Z,56.80
2018-12-01T14:39:57.183Z,54.30
2018-12-01T14:42:30.083Z,55.37
2018-12-01T14:45:00.560Z,55.83
2018-12-01T14:47:30.605Z,58.17
2018-12-01T14:50:01.841Z,57.00
2018-12-01T14:52:32.158Z,56.90
2018-12-01T14:55:02.285Z,54.43
2018-12-01T14:57:32.525Z,56.13
2018-12-01T15:00:02.457Z,54.17
2018-12-01T15:02:33.375Z,55.23
2018-12-01T15:05:03.574Z,55.60
2018-12-01T15:07:33.845Z,58.77
2018-12-01T15:10:04.349Z,56.23
2018-12-01T15:12:34.562Z,56.50
2018-12-01T15:15:05.352Z,56.97
2018-12-01T15:17:36.029Z,57.10
2018-12-01T15:20:12.362Z,57.03
2018-12-01T15:22:46.784Z,56.23
2018-12-01T15:25:19.775Z,54.70
2018-12-01T15:27:49.875Z,55.10
2018-12-01T15:30:26.857Z,56.13
2018-12-01T15:33:13.163Z,55.37
2018-12-01T15:35:45.101Z,54.70
2018-12-01T15:38:15.962Z,57.20
2018-12-01T15:40:49.739Z,56.00
2018-12-01T15:43:19.766Z,52.33
2018-12-01T15:45:51.705Z,54.63
2018-12-01T15:48:21.832Z,54.27
2018-12-01T15:50:52.056Z,52.63
2018-12-01T15:53:22.308Z,55.13
2018-12-01T15:55:53.082Z,54.30
2018-12-01T15:58:23.294Z,55.83
2018-12-01T16:00:53.895Z,53.77
2018-12-01T16:03:24.965Z,53.50
2018-12-01T16:05:55.188Z,54.03
2018-12-01T16:08:25.278Z,56.10
2018-12-01T16:10:55.450Z,55.67
2018-12-01T16:13:27.423Z,54.83
2018-12-01T16:16:07.065Z,53.80
2018-12-01T16:18:37.346Z,56.93
2018-12-01T16:21:07.673Z,55.03
2018-12-01T16:23:38.034Z,54.37
2018-12-01T16:26:08.667Z,53.37
2018-12-01T16:28:39.784Z,52.83
2018-12-01T16:31:10.317Z,54.07
2018-12-01T16:33:41.220Z,55.63
2018-12-01T16:36:11.400Z,53.40
2018-12-01T16:38:41.469Z,52.80
2018-12-01T16:41:19.293Z,53.80
2018-12-01T16:43:49.750Z,55.43
2018-12-01T16:46:19.743Z,55.87
2018-12-01T16:48:50.632Z,55.53
2018-12-01T16:51:22.432Z,53.33
2018-12-01T16:53:53.423Z,53.90
2018-12-01T16:59:07.877Z,51.70
2018-12-01T17:01:38.241Z,55.77
2018-12-01T17:04:08.320Z,50.40
2018-12-01T17:06:38.238Z,51.87
2018-12-01T17:09:12.060Z,52.77
2018-12-01T17:11:42.222Z,55.80
2018-12-01T17:14:12.711Z,54.67
2018-12-01T17:16:43.337Z,53.57
2018-12-01T17:19:13.477Z,55.27
2018-12-01T17:21:44.169Z,52.17
2018-12-01T17:24:14.563Z,54.73
2018-12-01T17:26:51.616Z,54.03
2018-12-01T17:29:23.171Z,54.03
2018-12-01T17:31:54.558Z,53.70
2018-12-01T17:34:27.906Z,53.80
2018-12-01T17:37:01.226Z,56.20
2018-12-01T17:39:32.917Z,54.17
2018-12-01T17:42:04.562Z,55.37
2018-12-01T17:44:36.340Z,56.20
2018-12-01T17:47:07.472Z,55.50
2018-12-01T17:49:37.664Z,56.23
2018-12-01T17:52:08.070Z,56.17
2018-12-01T17:54:38.626Z,55.83
2018-12-01T17:57:08.605Z,56.30
2018-12-01T17:59:39.691Z,56.83
2018-12-01T18:02:09.702Z,55.37
2018-12-01T18:04:39.752Z,56.93
2018-12-01T18:07:10.496Z,55.27
2018-12-01T18:09:41.943Z,53.20
2018-12-01T18:12:12.805Z,52.73
2018-12-01T18:14:44.186Z,56.43
2018-12-01T18:17:18.440Z,54.20
2018-12-01T18:19:49.980Z,53.90
2018-12-01T18:22:21.485Z,53.93
2018-12-01T18:24:51.551Z,53.13
2018-12-01T18:27:21.906Z,55.33
2018-12-01T18:29:52.893Z,51.77
2018-12-01T18:32:23.076Z,55.83
2018-12-01T18:34:54.348Z,53.73
2018-12-01T18:37:24.437Z,55.07
2018-12-01T18:39:54.903Z,54.10
2018-12-01T18:42:25.133Z,58.23
2018-12-01T18:44:55.809Z,53.73
2018-12-01T18:47:26.797Z,55.83
2018-12-01T18:49:56.718Z,54.67
2018-12-01T18:52:26.992Z,55.53
2018-12-01T18:54:56.991Z,53.97
2018-12-01T18:57:27.179Z,54.83
2018-12-01T18:59:57.693Z,56.83
2018-12-01T19:02:28.909Z,54.43
2018-12-01T19:04:59.385Z,55.00
2018-12-01T19:07:29.637Z,55.70
2018-12-01T19:10:00.037Z,54.67
2018-12-01T19:12:29.922Z,54.07
2018-12-01T19:15:00.094Z,52.30
2018-12-01T19:17:30.046Z,53.87
2018-12-01T19:20:00.083Z,55.40
2018-12-01T19:22:35.039Z,54.00
2018-12-01T19:25:06.493Z,54.70
2018-12-01T19:27:36.769Z,54.97
2018-12-01T19:30:10.193Z,56.23
2018-12-01T19:32:41.567Z,55.30
2018-12-01T19:35:14.522Z,57.37
2018-12-01T19:37:45.939Z,55.97
2018-12-01T19:40:22.654Z,58.20
2018-12-01T19:42:52.712Z,55.07
2018-12-01T19:45:22.892Z,57.57
2018-12-01T19:47:52.684Z,56.57
2018-12-01T19:50:28.294Z,56.63
2018-12-01T19:52:58.345Z,56.07
2018-12-01T19:55:29.918Z,56.47
2018-12-01T19:58:00.699Z,55.47
2018-12-01T20:00:31.902Z,59.60
2018-12-01T20:03:04.192Z,55.33
2018-12-01T20:05:34.533Z,55.73
2018-12-01T20:08:04.646Z,56.90
2018-12-01T20:10:41.984Z,53.83
2018-12-01T20:13:19.948Z,57.20
2018-12-01T20:15:55.376Z,55.43
2018-12-01T20:18:27.873Z,53.67
2018-12-01T20:20:58.065Z,54.17
2018-12-01T20:23:27.880Z,56.50
2018-12-01T20:25:58.201Z,57.80
2018-12-01T20:28:28.162Z,55.67
2018-12-01T20:30:58.132Z,56.37
2018-12-01T20:33:28.422Z,56.77
2018-12-01T20:38:11.962Z,57.60
2018-12-01T20:40:42.163Z,57.20
2018-12-01T20:43:12.540Z,56.47
2018-12-01T20:45:49.596Z,59.07
2018-12-01T20:48:19.602Z,58.20
2018-12-01T20:50:51.944Z,57.30
2018-12-01T20:53:22.814Z,56.40
2018-12-01T20:55:58.411Z,58.13
2018-12-01T20:58:33.079Z,58.70
2018-12-01T21:01:03.025Z,58.63
2018-12-01T21:03:33.214Z,57.33
2018-12-01T21:06:03.553Z,58.30
2018-12-01T21:08:33.719Z,62.30
2018-12-01T21:11:07.086Z,58.43
2018-12-01T21:13:37.840Z,61.50
2018-12-01T21:16:08.375Z,62.53
2018-12-01T21:18:38.492Z,60.73
2018-12-01T21:21:08.449Z,62.27
2018-12-01T21:23:39.548Z,67.17
2018-12-01T21:26:09.489Z,63.10
2018-12-01T21:28:39.808Z,63.13
2018-12-01T21:31:12.160Z,62.97
2018-12-01T21:33:42.459Z,66.10
2018-12-01T21:36:12.473Z,64.57
2018-12-01T21:38:42.903Z,63.47
2018-12-01T21:41:13.051Z,58.83
2018-12-01T21:43:44.042Z,58.43
2018-12-01T21:46:14.136Z,62.30
2018-12-01T21:48:44.642Z,63.77
2018-12-01T21:51:14.880Z,61.87
2018-12-01T21:53:45.206Z,62.23
2018-12-01T21:56:15.174Z,59.60
2018-12-01T21:58:45.107Z,66.23
2018-12-01T22:01:15.963Z,58.77
2018-12-01T22:03:46.040Z,62.90
2018-12-01T22:06:16.401Z,67.73
2018-12-01T22:08:46.353Z,61.53
2018-12-01T22:11:16.693Z,61.80
2018-12-01T22:13:46.756Z,60.70
2018-12-01T22:16:16.768Z,64.17
2018-12-01T22:18:47.343Z,62.37
2018-12-01T22:21:17.163Z,66.33
2018-12-01T22:23:47.387Z,57.87
2018-12-01T22:26:17.517Z,58.20
2018-12-01T22:28:47.623Z,67.60
2018-12-01T22:31:17.824Z,61.27
2018-12-01T22:33:48.056Z,63.23
2018-12-01T22:36:18.237Z,61.40
2018-12-01T22:38:48.325Z,65.90
2018-12-01T22:41:18.260Z,63.77
2018-12-01T22:43:48.228Z,62.60
2018-12-01T22:46:18.668Z,67.73
2018-12-01T22:48:49.500Z,62.30
2018-12-01T22:51:20.326Z,61.33
2018-12-01T22:53:50.930Z,62.93
2018-12-01T22:56:20.860Z,66.20
2018-12-01T22:58:50.859Z,59.10
2018-12-01T23:01:22.348Z,64.03
2018-12-01T23:03:53.278Z,62.30
2018-12-01T23:06:23.344Z,62.47
2018-12-01T23:08:53.541Z,57.87
2018-12-01T23:11:23.826Z,64.23
2018-12-01T23:13:54.115Z,60.87
2018-12-01T23:16:25.602Z,61.10
2018-12-01T23:18:55.925Z,58.97
2018-12-01T23:21:25.928Z,60.57
2018-12-01T23:23:56.106Z,63.90
2018-12-01T23:26:26.263Z,58.47
2018-12-01T23:28:56.254Z,63.07
2018-12-01T23:31:26.770Z,63.43
2018-12-01T23:33:57.198Z,60.27
2018-12-01T23:36:27.596Z,57.13
2018-12-01T23:38:58.024Z,62.23
2018-12-01T23:41:27.933Z,60.77
2018-12-01T23:43:58.460Z,59.10
2018-12-01T23:46:28.527Z,60.23
2018-12-01T23:48:58.663Z,56.47
2018-12-01T23:51:29.525Z,58.67
2018-12-01T23:54:00.013Z,60.43
2018-12-01T23:56:30.608Z,59.17
2018-12-01T23:59:00.704Z,56.33
